sensor_id;sensor_type;location;lat;lon;timestamp;temperature;humidity
21340;DHT22;10828;47.064;15.422;2023-08-17T04:24:59;19.20;99.90
21340;DHT22;10828;47.064;15.422;2023-08-17T04:27:24;19.20;99.90
21340;DHT22;10828;47.064;15.422;2023-08-17T04:29:51;19.20;99.90
21340;DHT22;10828;47.064;15.422;2023-08-17T04:32:19;19.20;99.90
21340;DHT22;10828;47.064;15.422;2023-08-17T04:34:46;19.10;99.90
21340;DHT22;10828;47.064;15.422;2023-08-17T04:37:13;19.00;99.90
21340;DHT22;10828;47.064;15.422;2023-08-17T04:39:39;19.10;99.90
21340;DHT22;10828;47.064;15.422;2023-08-17T04:42:07;19.00;99.90
21340;DHT22;10828;47.064;15.422;2023-08-17T04:44:34;19.00;99.90
21340;DHT22;10828;47.064;15.422;2023-08-17T04:46:59;19.00;99.90
21340;DHT22;10828;47.064;15.422;2023-08-17T04:49:26;19.10;99.90
21340;DHT22;10828;47.064;15.422;2023-08-17T04:51:52;19.10;99.90
21340;DHT22;10828;47.064;15.422;2023-08-17T04:54:18;19.10;99.90
21340;DHT22;10828;47.064;15.422;2023-08-17T04:56:52;19.10;99.90
21340;DHT22;10828;47.064;15.422;2023-08-17T04:59:18;19.10;99.90
21340;DHT22;10828;47.064;15.422;2023-08-17T05:01:43;19.20;99.90
21340;DHT22;10828;47.064;15.422;2023-08-17T05:04:09;19.20;99.90
21340;DHT22;10828;47.064;15.422;2023-08-17T05:06:34;19.10;99.90
21340;DHT22;10828;47.064;15.422;2023-08-17T05:09:00;19.10;99.90
21340;DHT22;10828;47.064;15.422;2023-08-17T05:11:43;19.10;99.90
21340;DHT22;10828;47.064;15.422;2023-08-17T05:14:09;19.10;99.90
21340;DHT22;10828;47.064;15.422;2023-08-17T05:16:35;19.10;99.90
21340;DHT22;10828;47.064;15.422;2023-08-17T05:19:01;19.00;99.90
21340;DHT22;10828;47.064;15.422;2023-08-17T05:21:26;19.10;99.90
21340;DHT22;10828;47.064;15.422;2023-08-17T05:23:52;19.10;99.90
21340;DHT22;10828;47.064;15.422;2023-08-17T05:26:18;19.10;99.90
21340;DHT22;10828;47.064;15.422;2023-08-17T05:28:43;19.20;99.90
21340;DHT22;10828;47.064;15.422;2023-08-17T05:31:15;19.30;99.90
21340;DHT22;10828;47.064;15.422;2023-08-17T05:33:40;19.40;99.90
21340;DHT22;10828;47.064;15.422;2023-08-17T05:36:07;19.40;99.90
21340;DHT22;10828;47.064;15.422;2023-08-17T05:38:33;19.60;99.90
21340;DHT22;10828;47.064;15.422;2023-08-17T05:40:59;19.50;99.90
21340;DHT22;10828;47.064;15.422;2023-08-17T05:43:31;19.60;99.90
21340;DHT22;10828;47.064;15.422;2023-08-17T05:45:57;19.70;99.90
21340;DHT22;10828;47.064;15.422;2023-08-17T05:48:24;19.80;99.90
21340;DHT22;10828;47.064;15.422;2023-08-17T05:50:50;19.80;99.90
21340;DHT22;10828;47.064;15.422;2023-08-17T05:53:16;19.90;99.90
21340;DHT22;10828;47.064;15.422;2023-08-17T05:55:41;20.00;99.90
21340;DHT22;10828;47.064;15.422;2023-08-17T05:58:12;20.10;99.90
21340;DHT22;10828;47.064;15.422;2023-08-17T06:00:47;20.20;99.90
21340;DHT22;10828;47.064;15.422;2023-08-17T06:03:12;20.30;99.90
21340;DHT22;10828;47.064;15.422;2023-08-17T06:05:39;20.30;99.90
21340;DHT22;10828;47.064;15.422;2023-08-17T06:08:05;20.40;99.90
21340;DHT22;10828;47.064;15.422;2023-08-17T06:10:31;20.50;99.90
21340;DHT22;10828;47.064;15.422;2023-08-17T06:12:56;20.60;99.90
21340;DHT22;10828;47.064;15.422;2023-08-17T06:15:23;20.60;99.90
21340;DHT22;10828;47.064;15.422;2023-08-17T06:17:49;20.60;99.90
21340;DHT22;10828;47.064;15.422;2023-08-17T06:20:18;20.70;99.90
21340;DHT22;10828;47.064;15.422;2023-08-17T06:22:44;20.80;99.90
21340;DHT22;10828;47.064;15.422;2023-08-17T06:25:10;20.80;99.90
21340;DHT22;10828;47.064;15.422;2023-08-17T06:27:36;20.90;99.90
21340;DHT22;10828;47.064;15.422;2023-08-17T06:30:05;21.00;99.90
21340;DHT22;10828;47.064;15.422;2023-08-17T06:32:32;21.10;99.90
21340;DHT22;10828;47.064;15.422;2023-08-17T06:34:57;21.20;99.90
21340;DHT22;10828;47.064;15.422;2023-08-17T06:37:33;21.30;99.90
21340;DHT22;10828;47.064;15.422;2023-08-17T06:39:59;21.40;99.90
21340;DHT22;10828;47.064;15.422;2023-08-17T06:42:25;21.50;99.90
21340;DHT22;10828;47.064;15.422;2023-08-17T06:44:50;21.50;99.90
21340;DHT22;10828;47.064;15.422;2023-08-17T06:47:16;21.60;99.90
21340;DHT22;10828;47.064;15.422;2023-08-17T06:49:41;21.60;99.90
21340;DHT22;10828;47.064;15.422;2023-08-17T06:52:07;21.70;99.90
21340;DHT22;10828;47.064;15.422;2023-08-17T06:54:33;21.70;99.90
21340;DHT22;10828;47.064;15.422;2023-08-17T06:57:01;21.80;99.90
21340;DHT22;10828;47.064;15.422;2023-08-17T06:59:48;21.90;99.90
21340;DHT22;10828;47.064;15.422;2023-08-17T07:02:14;21.90;99.90
21340;DHT22;10828;47.064;15.422;2023-08-17T07:04:39;21.90;99.90
21340;DHT22;10828;47.064;15.422;2023-08-17T07:07:05;22.00;99.90
21340;DHT22;10828;47.064;15.422;2023-08-17T07:09:30;22.10;99.90
21340;DHT22;10828;47.064;15.422;2023-08-17T07:11:56;22.20;99.90
21340;DHT22;10828;47.064;15.422;2023-08-17T07:14:21;22.20;99.90
21340;DHT22;10828;47.064;15.422;2023-08-17T07:16:47;22.30;99.90
21340;DHT22;10828;47.064;15.422;2023-08-17T07:19:13;22.40;99.90
21340;DHT22;10828;47.064;15.422;2023-08-17T07:21:39;22.40;99.90
21340;DHT22;10828;47.064;15.422;2023-08-17T07:24:14;22.50;99.90
21340;DHT22;10828;47.064;15.422;2023-08-17T07:26:40;22.50;99.90
21340;DHT22;10828;47.064;15.422;2023-08-17T07:29:06;22.60;99.90
21340;DHT22;10828;47.064;15.422;2023-08-17T07:31:32;22.70;99.90
21340;DHT22;10828;47.064;15.422;2023-08-17T07:33:59;22.80;99.90
21340;DHT22;10828;47.064;15.422;2023-08-17T07:36:25;22.80;99.90
21340;DHT22;10828;47.064;15.422;2023-08-17T07:38:52;22.80;99.90
21340;DHT22;10828;47.064;15.422;2023-08-17T07:41:17;22.80;99.90
21340;DHT22;10828;47.064;15.422;2023-08-17T07:43:49;23.00;99.90
21340;DHT22;10828;47.064;15.422;2023-08-17T07:46:15;23.10;99.90
21340;DHT22;10828;47.064;15.422;2023-08-17T07:48:40;23.10;99.90
21340;DHT22;10828;47.064;15.422;2023-08-17T07:51:06;23.20;99.90
21340;DHT22;10828;47.064;15.422;2023-08-17T07:53:32;23.20;99.90
21340;DHT22;10828;47.064;15.422;2023-08-17T07:55:57;23.10;99.90
21340;DHT22;10828;47.064;15.422;2023-08-17T07:58:23;23.10;99.90
21340;DHT22;10828;47.064;15.422;2023-08-17T08:00:49;23.20;99.90
21340;DHT22;10828;47.064;15.422;2023-08-17T08:03:14;23.30;99.90
21340;DHT22;10828;47.064;15.422;2023-08-17T08:05:40;23.40;99.90
21340;DHT22;10828;47.064;15.422;2023-08-17T08:08:06;23.50;99.90
21340;DHT22;10828;47.064;15.422;2023-08-17T08:10:33;23.70;99.90
21340;DHT22;10828;47.064;15.422;2023-08-17T08:12:59;23.80;99.90
21340;DHT22;10828;47.064;15.422;2023-08-17T08:15:29;23.80;99.90
21340;DHT22;10828;47.064;15.422;2023-08-17T08:17:57;23.90;99.90
21340;DHT22;10828;47.064;15.422;2023-08-17T08:20:22;23.90;99.90
21340;DHT22;10828;47.064;15.422;2023-08-17T08:22:48;24.10;99.90
21340;DHT22;10828;47.064;15.422;2023-08-17T08:25:14;24.10;99.90
21340;DHT22;10828;47.064;15.422;2023-08-17T08:27:39;24.10;99.90
21340;DHT22;10828;47.064;15.422;2023-08-17T08:30:06;24.10;99.90
21340;DHT22;10828;47.064;15.422;2023-08-17T08:32:36;24.10;99.90
21340;DHT22;10828;47.064;15.422;2023-08-17T09:22:45;25.00;99.90
21340;DHT22;10828;47.064;15.422;2023-08-17T09:25:11;25.10;99.90
21340;DHT22;10828;47.064;15.422;2023-08-17T09:27:47;25.20;99.90
21340;DHT22;10828;47.064;15.422;2023-08-17T09:30:18;25.30;99.90
21340;DHT22;10828;47.064;15.422;2023-08-17T09:32:47;25.40;99.90
21340;DHT22;10828;47.064;15.422;2023-08-17T09:35:13;25.60;99.90
21340;DHT22;10828;47.064;15.422;2023-08-17T09:37:39;25.70;99.90
21340;DHT22;10828;47.064;15.422;2023-08-17T09:40:05;25.70;99.90
21340;DHT22;10828;47.064;15.422;2023-08-17T09:42:34;25.90;99.90
21340;DHT22;10828;47.064;15.422;2023-08-17T09:45:00;26.20;99.90
21340;DHT22;10828;47.064;15.422;2023-08-17T09:47:26;26.30;99.90
21340;DHT22;10828;47.064;15.422;2023-08-17T09:49:53;26.40;99.90
21340;DHT22;10828;47.064;15.422;2023-08-17T09:52:20;26.70;99.90
21340;DHT22;10828;47.064;15.422;2023-08-17T09:54:46;26.90;99.90
21340;DHT22;10828;47.064;15.422;2023-08-17T09:57:16;27.10;99.90
21340;DHT22;10828;47.064;15.422;2023-08-17T09:59:42;27.20;99.90
21340;DHT22;10828;47.064;15.422;2023-08-17T10:02:18;27.20;99.90
21340;DHT22;10828;47.064;15.422;2023-08-17T10:04:50;27.30;99.90
21340;DHT22;10828;47.064;15.422;2023-08-17T10:07:19;27.40;99.90
21340;DHT22;10828;47.064;15.422;2023-08-17T10:09:49;27.60;99.90
21340;DHT22;10828;47.064;15.422;2023-08-17T10:12:19;27.60;99.90
21340;DHT22;10828;47.064;15.422;2023-08-17T10:14:49;27.50;99.90
21340;DHT22;10828;47.064;15.422;2023-08-17T10:17:31;27.60;99.90
21340;DHT22;10828;47.064;15.422;2023-08-17T10:20:00;27.90;99.90
21340;DHT22;10828;47.064;15.422;2023-08-17T10:25:11;28.00;99.90
21340;DHT22;10828;47.064;15.422;2023-08-17T10:27:40;28.30;99.90
21340;DHT22;10828;47.064;15.422;2023-08-17T10:30:08;28.30;99.90
21340;DHT22;10828;47.064;15.422;2023-08-17T10:32:34;28.20;99.90
21340;DHT22;10828;47.064;15.422;2023-08-17T10:35:01;28.30;99.90
21340;DHT22;10828;47.064;15.422;2023-08-17T10:37:28;28.60;99.90
21340;DHT22;10828;47.064;15.422;2023-08-17T10:39:54;28.70;99.90
21340;DHT22;10828;47.064;15.422;2023-08-17T10:42:36;28.70;99.90
21340;DHT22;10828;47.064;15.422;2023-08-17T10:47:47;28.70;99.90
21340;DHT22;10828;47.064;15.422;2023-08-17T10:50:23;28.30;99.90
21340;DHT22;10828;47.064;15.422;2023-08-17T10:52:50;28.20;99.90
21340;DHT22;10828;47.064;15.422;2023-08-17T10:55:16;28.50;99.90
21340;DHT22;10828;47.064;15.422;2023-08-17T10:57:44;28.90;99.90
21340;DHT22;10828;47.064;15.422;2023-08-17T11:02:57;28.90;99.90
21340;DHT22;10828;47.064;15.422;2023-08-17T11:05:42;29.30;99.90
21340;DHT22;10828;47.064;15.422;2023-08-17T11:08:32;29.50;99.90
21340;DHT22;10828;47.064;15.422;2023-08-17T11:11:11;29.30;99.90
21340;DHT22;10828;47.064;15.422;2023-08-17T11:13:42;29.00;99.90
21340;DHT22;10828;47.064;15.422;2023-08-17T11:16:11;28.90;99.90
21340;DHT22;10828;47.064;15.422;2023-08-17T11:18:38;28.90;99.90
21340;DHT22;10828;47.064;15.422;2023-08-17T11:21:05;29.00;99.90
21340;DHT22;10828;47.064;15.422;2023-08-17T11:23:31;29.10;99.90
21340;DHT22;10828;47.064;15.422;2023-08-17T11:25:58;28.90;99.90
21340;DHT22;10828;47.064;15.422;2023-08-17T11:28:24;28.70;99.90
21340;DHT22;10828;47.064;15.422;2023-08-17T11:31:01;28.60;99.90
21340;DHT22;10828;47.064;15.422;2023-08-17T11:33:27;28.50;99.90
21340;DHT22;10828;47.064;15.422;2023-08-17T11:36:00;28.40;99.90
21340;DHT22;10828;47.064;15.422;2023-08-17T11:38:30;28.10;99.90
21340;DHT22;10828;47.064;15.422;2023-08-17T11:40:58;27.80;99.90
21340;DHT22;10828;47.064;15.422;2023-08-17T11:43:24;27.70;99.90
21340;DHT22;10828;47.064;15.422;2023-08-17T11:45:50;27.70;99.90
21340;DHT22;10828;47.064;15.422;2023-08-17T11:48:19;27.70;99.90
21340;DHT22;10828;47.064;15.422;2023-08-17T11:50:44;28.00;99.90
21340;DHT22;10828;47.064;15.422;2023-08-17T11:53:10;28.30;99.90
21340;DHT22;10828;47.064;15.422;2023-08-17T11:55:36;28.60;99.90
21340;DHT22;10828;47.064;15.422;2023-08-17T11:58:03;28.90;99.90
21340;DHT22;10828;47.064;15.422;2023-08-17T13:20:44;29.70;99.90
21340;DHT22;10828;47.064;15.422;2023-08-17T13:23:10;29.70;99.90
21340;DHT22;10828;47.064;15.422;2023-08-17T13:25:37;29.40;99.90
21340;DHT22;10828;47.064;15.422;2023-08-17T13:28:04;29.30;99.90
21340;DHT22;10828;47.064;15.422;2023-08-17T13:30:30;29.00;99.90
21340;DHT22;10828;47.064;15.422;2023-08-17T13:32:56;28.80;99.90
21340;DHT22;10828;47.064;15.422;2023-08-17T13:35:21;28.70;99.90
21340;DHT22;10828;47.064;15.422;2023-08-17T13:37:54;28.50;99.90
21340;DHT22;10828;47.064;15.422;2023-08-17T13:40:20;28.40;99.90
21340;DHT22;10828;47.064;15.422;2023-08-17T13:42:46;28.30;99.90
21340;DHT22;10828;47.064;15.422;2023-08-17T13:45:11;28.30;99.90
21340;DHT22;10828;47.064;15.422;2023-08-17T13:47:37;28.40;99.90
21340;DHT22;10828;47.064;15.422;2023-08-17T13:50:04;28.50;99.90
21340;DHT22;10828;47.064;15.422;2023-08-17T13:52:30;28.40;99.90
21340;DHT22;10828;47.064;15.422;2023-08-17T13:54:55;28.50;99.90
21340;DHT22;10828;47.064;15.422;2023-08-17T13:57:21;28.50;99.90
21340;DHT22;10828;47.064;15.422;2023-08-17T13:59:46;28.70;99.90
21340;DHT22;10828;47.064;15.422;2023-08-17T14:02:12;28.80;99.90
21340;DHT22;10828;47.064;15.422;2023-08-17T14:04:38;29.00;99.90
21340;DHT22;10828;47.064;15.422;2023-08-17T14:07:03;29.20;99.90
21340;DHT22;10828;47.064;15.422;2023-08-17T14:09:30;29.30;99.90
21340;DHT22;10828;47.064;15.422;2023-08-17T14:11:56;29.50;99.90
21340;DHT22;10828;47.064;15.422;2023-08-17T14:14:22;29.60;99.90
21340;DHT22;10828;47.064;15.422;2023-08-17T14:16:47;29.80;99.90
21340;DHT22;10828;47.064;15.422;2023-08-17T14:19:13;29.70;99.90
21340;DHT22;10828;47.064;15.422;2023-08-17T14:21:39;29.60;99.90
21340;DHT22;10828;47.064;15.422;2023-08-17T14:24:04;29.40;99.90
21340;DHT22;10828;47.064;15.422;2023-08-17T14:26:32;29.30;99.90
21340;DHT22;10828;47.064;15.422;2023-08-17T14:28:57;29.10;99.90
21340;DHT22;10828;47.064;15.422;2023-08-17T14:31:23;29.10;99.90
21340;DHT22;10828;47.064;15.422;2023-08-17T14:33:48;29.00;99.90
21340;DHT22;10828;47.064;15.422;2023-08-17T14:36:15;28.90;99.90
21340;DHT22;10828;47.064;15.422;2023-08-17T14:38:41;28.80;99.90
21340;DHT22;10828;47.064;15.422;2023-08-17T14:41:06;28.80;99.90
21340;DHT22;10828;47.064;15.422;2023-08-17T14:43:33;28.80;99.90
21340;DHT22;10828;47.064;15.422;2023-08-17T14:45:59;28.80;99.90
21340;DHT22;10828;47.064;15.422;2023-08-17T14:48:25;28.70;99.90
21340;DHT22;10828;47.064;15.422;2023-08-17T14:50:51;28.60;99.90
21340;DHT22;10828;47.064;15.422;2023-08-17T14:53:16;28.60;99.90
21340;DHT22;10828;47.064;15.422;2023-08-17T14:55:42;28.50;99.90
21340;DHT22;10828;47.064;15.422;2023-08-17T14:58:08;28.50;99.90
21340;DHT22;10828;47.064;15.422;2023-08-17T15:00:33;28.40;99.90
21340;DHT22;10828;47.064;15.422;2023-08-17T15:02:59;28.40;99.90
21340;DHT22;10828;47.064;15.422;2023-08-17T15:05:25;28.30;99.90
21340;DHT22;10828;47.064;15.422;2023-08-17T15:07:51;28.30;99.90
21340;DHT22;10828;47.064;15.422;2023-08-17T15:10:17;28.20;99.90
21340;DHT22;10828;47.064;15.422;2023-08-17T15:12:44;28.10;99.90
21340;DHT22;10828;47.064;15.422;2023-08-17T15:15:09;27.90;99.90
21340;DHT22;10828;47.064;15.422;2023-08-17T15:17:35;27.80;99.90
21340;DHT22;10828;47.064;15.422;2023-08-17T15:20:04;27.60;99.90
21340;DHT22;10828;47.064;15.422;2023-08-17T15:22:29;27.60;99.90
21340;DHT22;10828;47.064;15.422;2023-08-17T15:24:56;27.50;99.90
21340;DHT22;10828;47.064;15.422;2023-08-17T15:27:22;27.40;99.90
21340;DHT22;10828;47.064;15.422;2023-08-17T15:29:47;27.40;99.90
21340;DHT22;10828;47.064;15.422;2023-08-17T15:32:13;27.50;99.90
21340;DHT22;10828;47.064;15.422;2023-08-17T15:34:39;27.60;99.90
21340;DHT22;10828;47.064;15.422;2023-08-17T15:37:06;27.60;99.90
21340;DHT22;10828;47.064;15.422;2023-08-17T15:39:32;27.60;99.90
21340;DHT22;10828;47.064;15.422;2023-08-17T15:41:57;27.50;99.90
21340;DHT22;10828;47.064;15.422;2023-08-17T15:44:24;27.60;99.90
21340;DHT22;10828;47.064;15.422;2023-08-17T15:46:52;27.60;99.90
21340;DHT22;10828;47.064;15.422;2023-08-17T15:49:18;27.60;99.90
21340;DHT22;10828;47.064;15.422;2023-08-17T15:51:44;27.60;99.90
21340;DHT22;10828;47.064;15.422;2023-08-17T15:54:09;27.60;99.90
21340;DHT22;10828;47.064;15.422;2023-08-17T15:56:38;27.60;99.90
21340;DHT22;10828;47.064;15.422;2023-08-17T15:59:03;27.50;99.90
21340;DHT22;10828;47.064;15.422;2023-08-17T16:01:29;27.50;99.90
21340;DHT22;10828;47.064;15.422;2023-08-17T16:03:56;27.50;99.90
21340;DHT22;10828;47.064;15.422;2023-08-17T16:06:21;27.50;99.90
21340;DHT22;10828;47.064;15.422;2023-08-17T16:08:47;27.40;99.90
21340;DHT22;10828;47.064;15.422;2023-08-17T16:11:13;27.40;99.90
21340;DHT22;10828;47.064;15.422;2023-08-17T16:13:39;27.30;99.90
21340;DHT22;10828;47.064;15.422;2023-08-17T16:16:05;27.20;99.90
21340;DHT22;10828;47.064;15.422;2023-08-17T16:18:31;27.20;99.90
21340;DHT22;10828;47.064;15.422;2023-08-17T16:20:57;27.20;99.90
21340;DHT22;10828;47.064;15.422;2023-08-17T16:23:22;27.20;99.90
21340;DHT22;10828;47.064;15.422;2023-08-17T16:25:48;27.30;99.90
21340;DHT22;10828;47.064;15.422;2023-08-17T16:28:14;27.30;99.90
21340;DHT22;10828;47.064;15.422;2023-08-17T16:30:41;27.20;99.90
21340;DHT22;10828;47.064;15.422;2023-08-17T16:33:07;27.20;99.90
21340;DHT22;10828;47.064;15.422;2023-08-17T16:35:35;27.20;99.90
21340;DHT22;10828;47.064;15.422;2023-08-17T16:38:02;27.20;99.90
21340;DHT22;10828;47.064;15.422;2023-08-17T16:40:28;27.10;99.90
21340;DHT22;10828;47.064;15.422;2023-08-17T16:42:54;27.10;99.90
21340;DHT22;10828;47.064;15.422;2023-08-17T16:45:21;27.00;99.90
21340;DHT22;10828;47.064;15.422;2023-08-17T16:47:47;27.10;99.90
21340;DHT22;10828;47.064;15.422;2023-08-17T16:50:14;27.00;99.90
21340;DHT22;10828;47.064;15.422;2023-08-17T16:52:39;26.90;99.90
21340;DHT22;10828;47.064;15.422;2023-08-17T16:55:06;26.90;99.90
21340;DHT22;10828;47.064;15.422;2023-08-17T16:57:33;26.90;99.90
21340;DHT22;10828;47.064;15.422;2023-08-17T16:59:59;26.80;99.90
21340;DHT22;10828;47.064;15.422;2023-08-17T17:02:25;26.80;99.90
21340;DHT22;10828;47.064;15.422;2023-08-17T17:04:51;26.70;99.90
21340;DHT22;10828;47.064;15.422;2023-08-17T17:07:18;26.70;99.90
21340;DHT22;10828;47.064;15.422;2023-08-17T17:09:45;26.60;99.90
21340;DHT22;10828;47.064;15.422;2023-08-17T17:12:12;26.60;99.90
21340;DHT22;10828;47.064;15.422;2023-08-17T17:14:38;26.60;99.90
21340;DHT22;10828;47.064;15.422;2023-08-17T17:17:05;26.40;99.90
21340;DHT22;10828;47.064;15.422;2023-08-17T17:19:31;26.40;99.90
21340;DHT22;10828;47.064;15.422;2023-08-17T17:21:57;26.40;99.90
21340;DHT22;10828;47.064;15.422;2023-08-17T17:24:25;26.40;99.90
21340;DHT22;10828;47.064;15.422;2023-08-17T17:26:51;26.40;99.90
21340;DHT22;10828;47.064;15.422;2023-08-17T17:29:17;26.40;99.90
21340;DHT22;10828;47.064;15.422;2023-08-17T17:31:44;26.40;99.90
21340;DHT22;10828;47.064;15.422;2023-08-17T17:34:10;26.30;99.90
21340;DHT22;10828;47.064;15.422;2023-08-17T17:36:36;26.30;99.90
21340;DHT22;10828;47.064;15.422;2023-08-17T17:39:02;26.20;99.90
21340;DHT22;10828;47.064;15.422;2023-08-17T17:41:30;26.20;99.90
21340;DHT22;10828;47.064;15.422;2023-08-17T17:43:57;26.20;99.90
21340;DHT22;10828;47.064;15.422;2023-08-17T17:46:23;26.10;99.90
21340;DHT22;10828;47.064;15.422;2023-08-17T17:48:49;26.00;99.90
21340;DHT22;10828;47.064;15.422;2023-08-17T17:51:15;26.00;99.90
21340;DHT22;10828;47.064;15.422;2023-08-17T17:53:42;26.00;99.90
21340;DHT22;10828;47.064;15.422;2023-08-17T17:56:11;26.00;99.90
21340;DHT22;10828;47.064;15.422;2023-08-17T17:58:40;26.00;99.90
21340;DHT22;10828;47.064;15.422;2023-08-17T18:01:13;26.00;99.90
21340;DHT22;10828;47.064;15.422;2023-08-17T18:03:40;26.00;99.90
21340;DHT22;10828;47.064;15.422;2023-08-17T18:06:06;26.00;99.90
21340;DHT22;10828;47.064;15.422;2023-08-17T18:08:32;26.00;99.90
21340;DHT22;10828;47.064;15.422;2023-08-17T18:10:59;26.00;99.90
21340;DHT22;10828;47.064;15.422;2023-08-17T18:13:26;26.00;99.90
21340;DHT22;10828;47.064;15.422;2023-08-17T18:15:52;25.90;99.90
21340;DHT22;10828;47.064;15.422;2023-08-17T18:18:20;25.80;99.90
21340;DHT22;10828;47.064;15.422;2023-08-17T18:20:46;25.80;99.90
21340;DHT22;10828;47.064;15.422;2023-08-17T18:23:14;25.80;99.90
21340;DHT22;10828;47.064;15.422;2023-08-17T18:25:42;25.70;99.90
21340;DHT22;10828;47.064;15.422;2023-08-17T18:28:12;25.70;99.90
21340;DHT22;10828;47.064;15.422;2023-08-17T18:30:38;25.70;99.90
21340;DHT22;10828;47.064;15.422;2023-08-17T18:33:05;25.60;99.90
21340;DHT22;10828;47.064;15.422;2023-08-17T18:35:31;25.60;99.90
21340;DHT22;10828;47.064;15.422;2023-08-17T18:38:00;25.60;99.90
21340;DHT22;10828;47.064;15.422;2023-08-17T18:40:26;25.60;99.90
21340;DHT22;10828;47.064;15.422;2023-08-17T18:42:52;25.50;99.90
21340;DHT22;10828;47.064;15.422;2023-08-17T18:45:19;25.60;99.90
21340;DHT22;10828;47.064;15.422;2023-08-17T18:47:46;25.60;99.90
21340;DHT22;10828;47.064;15.422;2023-08-17T18:50:13;25.60;99.90
21340;DHT22;10828;47.064;15.422;2023-08-17T18:52:41;25.50;99.90
21340;DHT22;10828;47.064;15.422;2023-08-17T18:55:07;25.50;99.90
21340;DHT22;10828;47.064;15.422;2023-08-17T18:57:37;25.30;99.90
21340;DHT22;10828;47.064;15.422;2023-08-17T19:00:08;25.20;99.90
21340;DHT22;10828;47.064;15.422;2023-08-17T19:02:41;25.10;99.90
21340;DHT22;10828;47.064;15.422;2023-08-17T19:05:09;25.10;99.90
21340;DHT22;10828;47.064;15.422;2023-08-17T19:07:36;25.00;99.90
21340;DHT22;10828;47.064;15.422;2023-08-17T19:10:02;24.90;99.90
21340;DHT22;10828;47.064;15.422;2023-08-17T19:12:28;24.90;99.90
21340;DHT22;10828;47.064;15.422;2023-08-17T19:14:55;24.80;99.90
21340;DHT22;10828;47.064;15.422;2023-08-17T19:17:21;24.80;99.90
21340;DHT22;10828;47.064;15.422;2023-08-17T19:19:48;24.70;99.90
21340;DHT22;10828;47.064;15.422;2023-08-17T19:22:15;24.60;99.90
21340;DHT22;10828;47.064;15.422;2023-08-17T19:24:45;24.50;99.90
21340;DHT22;10828;47.064;15.422;2023-08-17T19:27:11;24.40;99.90
21340;DHT22;10828;47.064;15.422;2023-08-17T19:29:38;24.40;99.90
21340;DHT22;10828;47.064;15.422;2023-08-17T19:32:06;24.50;99.90
21340;DHT22;10828;47.064;15.422;2023-08-17T19:34:32;24.50;99.90
21340;DHT22;10828;47.064;15.422;2023-08-17T19:36:59;24.40;99.90
21340;DHT22;10828;47.064;15.422;2023-08-17T19:39:27;24.30;99.90
21340;DHT22;10828;47.064;15.422;2023-08-17T19:41:54;24.30;99.90
21340;DHT22;10828;47.064;15.422;2023-08-17T19:44:21;24.20;99.90
21340;DHT22;10828;47.064;15.422;2023-08-17T19:46:47;24.20;99.90
21340;DHT22;10828;47.064;15.422;2023-08-17T19:49:13;24.20;99.90
21340;DHT22;10828;47.064;15.422;2023-08-17T19:51:41;24.10;99.90
21340;DHT22;10828;47.064;15.422;2023-08-17T19:54:07;24.10;99.90
21340;DHT22;10828;47.064;15.422;2023-08-17T19:56:35;24.00;99.90
21340;DHT22;10828;47.064;15.422;2023-08-17T19:59:03;24.00;99.90
21340;DHT22;10828;47.064;15.422;2023-08-17T20:01:29;23.90;99.90
21340;DHT22;10828;47.064;15.422;2023-08-17T20:04:01;23.90;99.90
21340;DHT22;10828;47.064;15.422;2023-08-17T20:06:29;23.90;99.90
21340;DHT22;10828;47.064;15.422;2023-08-17T20:08:56;23.80;99.90
21340;DHT22;10828;47.064;15.422;2023-08-17T20:11:22;23.80;99.90
21340;DHT22;10828;47.064;15.422;2023-08-17T20:13:49;23.70;99.90
21340;DHT22;10828;47.064;15.422;2023-08-17T20:16:15;23.70;99.90
21340;DHT22;10828;47.064;15.422;2023-08-17T20:18:41;23.70;99.90
21340;DHT22;10828;47.064;15.422;2023-08-17T20:21:08;23.70;99.90
21340;DHT22;10828;47.064;15.422;2023-08-17T20:23:35;23.70;99.90
21340;DHT22;10828;47.064;15.422;2023-08-17T20:26:03;23.70;99.90
21340;DHT22;10828;47.064;15.422;2023-08-17T20:28:29;23.80;99.90
21340;DHT22;10828;47.064;15.422;2023-08-17T20:30:56;23.80;99.90
21340;DHT22;10828;47.064;15.422;2023-08-17T20:33:26;23.80;99.90
21340;DHT22;10828;47.064;15.422;2023-08-17T20:35:54;23.70;99.90
21340;DHT22;10828;47.064;15.422;2023-08-17T20:38:21;23.70;99.90
21340;DHT22;10828;47.064;15.422;2023-08-17T20:40:47;23.70;99.90
21340;DHT22;10828;47.064;15.422;2023-08-17T20:43:14;23.70;99.90
21340;DHT22;10828;47.064;15.422;2023-08-17T20:45:41;23.60;99.90
21340;DHT22;10828;47.064;15.422;2023-08-17T20:48:11;23.50;99.90
21340;DHT22;10828;47.064;15.422;2023-08-17T20:50:42;23.60;99.90
21340;DHT22;10828;47.064;15.422;2023-08-17T20:53:10;23.50;99.90
21340;DHT22;10828;47.064;15.422;2023-08-17T20:55:40;23.50;99.90
21340;DHT22;10828;47.064;15.422;2023-08-17T20:58:09;23.40;99.90
21340;DHT22;10828;47.064;15.422;2023-08-17T21:00:35;23.40;99.90
21340;DHT22;10828;47.064;15.422;2023-08-17T21:03:02;23.30;99.90
21340;DHT22;10828;47.064;15.422;2023-08-17T21:05:29;23.20;99.90
21340;DHT22;10828;47.064;15.422;2023-08-17T21:07:55;23.10;99.90
21340;DHT22;10828;47.064;15.422;2023-08-17T21:10:21;23.10;99.90
21340;DHT22;10828;47.064;15.422;2023-08-17T21:12:47;23.10;99.90
21340;DHT22;10828;47.064;15.422;2023-08-17T21:15:12;23.00;99.90
21340;DHT22;10828;47.064;15.422;2023-08-17T21:17:38;22.90;99.90
21340;DHT22;10828;47.064;15.422;2023-08-17T21:20:04;22.90;99.90
21340;DHT22;10828;47.064;15.422;2023-08-17T21:22:34;22.90;99.90
21340;DHT22;10828;47.064;15.422;2023-08-17T21:24:59;22.90;99.90
21340;DHT22;10828;47.064;15.422;2023-08-17T21:27:25;22.90;99.90
21340;DHT22;10828;47.064;15.422;2023-08-17T21:29:50;22.80;99.90
21340;DHT22;10828;47.064;15.422;2023-08-17T21:32:16;22.80;99.90
21340;DHT22;10828;47.064;15.422;2023-08-17T21:34:48;22.80;99.90
21340;DHT22;10828;47.064;15.422;2023-08-17T21:37:29;22.80;99.90
21340;DHT22;10828;47.064;15.422;2023-08-17T21:40:04;22.80;99.90
21340;DHT22;10828;47.064;15.422;2023-08-17T21:42:52;22.70;99.90
21340;DHT22;10828;47.064;15.422;2023-08-17T21:45:30;22.70;99.90
21340;DHT22;10828;47.064;15.422;2023-08-17T21:47:56;22.70;99.90
21340;DHT22;10828;47.064;15.422;2023-08-17T22:00:36;22.70;99.90
21340;DHT22;10828;47.064;15.422;2023-08-17T22:03:05;22.70;99.90
21340;DHT22;10828;47.064;15.422;2023-08-17T22:05:31;22.70;99.90